Flight Track Log - Related Links

Times and Time Zones

All times are in EST time to prevent confusion due to time zone crossing. See the N185PF flight status page for this flight to view local times or setup timezone preferences in your user account.


Time Position Orientation Groundspeed Altitude Reporting Facility
EST Latitude Longitude Course Direction KTS MPH feet Rate Location/Type
Mon 11:11:53 AM 44.3256 -93.3928 284° West 74 85 4,100  Level Minneapolis Center
Mon 11:12:55 AM 44.3303 -93.4189 284° West 79 91 5,000 871 Climbing Minneapolis Center
Mon 11:13:57 AM 44.3422 -93.4417 306° West 74 85 5,900 484 Climbing Minneapolis Center
Mon 11:14:59 AM 44.3564 -93.4711 304° West 89 102 6,000 48 Climbing Minneapolis Center
Mon 11:16:01 AM 44.3703 -93.5100 297° West 109 125 6,000  Level Minneapolis Center
Mon 11:17:03 AM 44.3683 -93.5519 266° West 109 125 6,000  Level Minneapolis Center
Mon 11:18:05 AM 44.3542 -93.5889 242° Southwest 109 125 6,000  Level Minneapolis Center
Mon 11:19:06 AM 44.3386 -93.6336 244° Southwest 107 123 6,000  Level Minneapolis Center
Mon 11:20:08 AM 44.3250 -93.6717 243° Southwest 110 127 6,000  Level Minneapolis Center
Mon 11:21:10 AM 44.3103 -93.7078 240° Southwest 109 125 6,000  Level Minneapolis Center
Mon 11:22:12 AM 44.2950 -93.7450 240° Southwest 111 128 6,000  Level Minneapolis Center
Mon 11:23:14 AM 44.2794 -93.7814 239° Southwest 109 125 6,000  Level Minneapolis Center
Mon 11:24:15 AM 44.2633 -93.8172 238° Southwest 109 125 6,000  Level Minneapolis Center
Mon 11:25:17 AM 44.2461 -93.8550 238° Southwest 115 132 6,000  Level Minneapolis Center
Mon 11:26:19 AM 44.2256 -93.8975 236° Southwest 114 131 6,000  Level Minneapolis Center
Mon 11:27:21 AM 44.2117 -93.9353 243° Southwest 110 127 6,000 48 Level Minneapolis Center
Mon 11:28:23 AM 44.1983 -93.9731 244° Southwest 110 127 6,100  Climbing Minneapolis Center
Mon 11:29:24 AM 44.1856 -94.0117 245° Southwest 110 127 6,000  Descending Minneapolis Center
Mon 11:30:26 AM 44.1711 -94.0508 243° Southwest 113 130 6,100 48 Climbing Minneapolis Center
Mon 11:31:28 AM 44.1586 -94.0889 245° Southwest 109 125 6,100 -48 Level Minneapolis Center
Mon 11:32:30 AM 44.1456 -94.1267 244° Southwest 108 124 6,000 -49 Descending Minneapolis Center
Mon 11:33:31 AM 44.1300 -94.1736 245° Southwest 110 127 6,000  Level Minneapolis Center
Mon 11:34:33 AM 44.1186 -94.2128 248° West 108 124 6,000  Level Minneapolis Center
Mon 11:35:35 AM 44.1058 -94.2519 246° West 111 128 6,000  Level Minneapolis Center
Mon 11:36:37 AM 44.0936 -94.2911 247° West 110 127 6,000 48 Level Minneapolis Center
Mon 11:37:39 AM 44.0817 -94.3303 247° West 110 127 6,100  Climbing Minneapolis Center
Mon 11:38:40 AM 44.0681 -94.3750 247° West 111 128 6,000 -49 Descending Minneapolis Center
Mon 11:39:42 AM 44.0550 -94.4131 244° Southwest 110 127 6,000  Level Minneapolis Center
Mon 11:40:44 AM 44.0400 -94.4522 242° Southwest 113 130 6,000  Level Minneapolis Center
Mon 11:41:46 AM 44.0275 -94.4906 246° West 111 128 6,000  Level Minneapolis Center
Mon 11:42:48 AM 44.0136 -94.5306 244° Southwest 114 131 6,000  Level Minneapolis Center
Mon 11:43:50 AM 44.0017 -94.5692 247° West 111 128 6,000  Level Minneapolis Center
Mon 11:44:51 AM 43.9831 -94.6150 241° Southwest 113 130 6,000  Level Minneapolis Center
Mon 11:45:53 AM 43.9686 -94.6544 243° Southwest 114 131 6,000  Level Minneapolis Center
Mon 11:46:55 AM 43.9547 -94.6947 244° Southwest 115 132 6,000  Level Minneapolis Center
Mon 11:47:57 AM 43.9422 -94.7356 247° West 115 132 6,000  Level Minneapolis Center
Mon 11:48:58 AM 43.9286 -94.7761 245° Southwest 116 133 6,000  Level Minneapolis Center
Mon 11:50:00 AM 43.9200 -94.8178 254° West 114 131 6,000  Level Minneapolis Center
Mon 11:51:02 AM 43.9072 -94.8578 246° West 114 131 6,000  Level Minneapolis Center
Mon 11:52:04 AM 43.8881 -94.9056 241° Southwest 117 135 6,000  Level Minneapolis Center
Mon 11:53:06 AM 43.8742 -94.9472 245° Southwest 119 137 6,000  Level Minneapolis Center
Mon 11:54:07 AM 43.8611 -94.9864 245° Southwest 115 132 6,000  Level Minneapolis Center
Mon 11:55:09 AM 43.8486 -95.0272 247° West 115 132 6,000  Level Minneapolis Center
Mon 11:56:11 AM 43.8342 -95.0697 245° Southwest 118 136 6,000  Level Minneapolis Center
Mon 11:57:13 AM 43.8203 -95.1106 245° Southwest 119 137 6,000  Level Minneapolis Center
Mon 11:58:15 AM 43.8050 -95.1497 242° Southwest 117 135 6,000  Level Minneapolis Center
Mon 11:59:16 AM 43.7883 -95.1981 244° Southwest 116 133 6,000 48 Level Minneapolis Center
Mon 12:00:19 PM 43.7739 -95.2403 245° Southwest 118 136 6,100  Climbing Minneapolis Center
Mon 12:01:21 PM 43.7608 -95.2814 246° West 119 137 6,000 -48 Descending Minneapolis Center
Mon 12:02:23 PM 43.7458 -95.3239 244° Southwest 119 137 6,000  Level Minneapolis Center
Mon 12:03:24 PM 43.7303 -95.3647 242° Southwest 120 138 6,000  Level Minneapolis Center
Mon 12:04:26 PM 43.7150 -95.4056 243° Southwest 120 138 6,000  Level Minneapolis Center
Mon 12:05:28 PM 43.6961 -95.4544 242° Southwest 120 138 6,000  Level Minneapolis Center
Mon 12:06:30 PM 43.6806 -95.4953 242° Southwest 120 138 6,000 48 Level Minneapolis Center
Mon 12:07:32 PM 43.6639 -95.5344 240° Southwest 119 137 6,100  Climbing Minneapolis Center
Mon 12:08:34 PM 43.6503 -95.5794 247° West 122 140 6,000 -49 Descending Minneapolis Center
Mon 12:09:35 PM 43.6486 -95.6264 267° West 122 140 6,000  Level Minneapolis Center
Mon 12:10:37 PM 43.6492 -95.6722 271° West 122 140 6,000  Level Minneapolis Center
Mon 12:11:39 PM 43.6486 -95.7175 269° West 120 138 6,000  Level Minneapolis Center
Mon 12:12:41 PM 43.6500 -95.7728 272° West 120 138 6,000  Level Minneapolis Center
Mon 12:13:43 PM 43.6497 -95.8186 270° West 120 138 6,000  Level Minneapolis Center
Mon 12:14:44 PM 43.6506 -95.8644 271° West 120 138 6,000  Level Minneapolis Center
Mon 12:15:46 PM 43.6519 -95.9114 272° West 121 139 6,000  Level Minneapolis Center
Mon 12:16:48 PM 43.6522 -95.9575 270° West 121 139 6,000  Level Minneapolis Center
Mon 12:17:50 PM 43.6539 -96.0053 273° West 122 140 6,000  Level Minneapolis Center
Mon 12:18:51 PM 43.6531 -96.0514 269° West 122 140 6,000  Level Minneapolis Center
Mon 12:19:53 PM 43.6542 -96.1075 272° West 122 140 6,000  Level Minneapolis Center
Mon 12:20:55 PM 43.6556 -96.1539 272° West 122 140 6,000  Level Minneapolis Center
Mon 12:21:57 PM 43.6564 -96.2014 271° West 122 140 6,000  Level Minneapolis Center
Mon 12:22:58 PM 43.6575 -96.2478 272° West 122 140 6,000  Level Minneapolis Center
Mon 12:24:00 PM 43.6578 -96.2947 270° West 123 142 6,000  Level Minneapolis Center
Mon 12:25:02 PM 43.6583 -96.3411 271° West 121 139 6,000  Level Minneapolis Center
Mon 12:26:04 PM 43.6578 -96.3875 269° West 121 139 6,000  Level Minneapolis Center
Mon 12:27:06 PM 43.6564 -96.4347 268° West 122 140 6,000  Level Minneapolis Center
Mon 12:28:07 PM 43.6569 -96.4903 271° West 121 139 6,000  Level Minneapolis Center
Mon 12:29:09 PM 43.6564 -96.5389 269° West 123 142 6,000  Level Minneapolis Center
Mon 12:30:11 PM 43.6553 -96.5856 268° West 123 142 6,000  Level Minneapolis Center
Mon 12:31:13 PM 43.6550 -96.6319 270° West 122 140 6,000  Level Minneapolis Center
Mon 12:32:15 PM 43.6539 -96.6781 268° West 121 139 6,000  Level Minneapolis Center
Mon 12:33:17 PM 43.6514 -96.7258 266° West 123 142 6,000  Level Minneapolis Center
Mon 12:34:18 PM 43.6500 -96.7808 268° West 122 140 6,000 49 Level Minneapolis Center
Mon 12:35:20 PM 43.6544 -96.8269 278° West 121 139 6,100  Climbing Minneapolis Center
Mon 12:36:22 PM 43.6600 -96.8739 279° West 121 139 6,000 -48 Descending Minneapolis Center
Mon 12:37:24 PM 43.6653 -96.9200 279° West 122 140 6,000  Level Minneapolis Center
Mon 12:38:25 PM 43.6692 -96.9664 277° West 122 140 6,000  Level Minneapolis Center
Mon 12:39:27 PM 43.6747 -97.0128 279° West 122 140 6,000  Level Minneapolis Center
Mon 12:40:29 PM 43.6808 -97.0583 281° West 121 139 6,000  Level Minneapolis Center
Mon 12:41:31 PM 43.6869 -97.1136 279° West 122 140 6,000  Level Minneapolis Center
Mon 12:42:33 PM 43.6919 -97.1600 278° West 121 139 6,000  Level Minneapolis Center
Mon 12:43:34 PM 43.6975 -97.2061 279° West 122 140 6,000  Level Minneapolis Center
Mon 12:44:36 PM 43.7025 -97.2519 279° West 121 139 6,000  Level Minneapolis Center
Mon 12:45:38 PM 43.7067 -97.2967 277° West 120 138 6,000  Level Minneapolis Center
Mon 12:46:40 PM 43.7106 -97.3442 276° West 122 140 6,000  Level Minneapolis Center
Mon 12:47:41 PM 43.7161 -97.3917 279° West 123 142 6,000  Level Minneapolis Center
Mon 12:48:43 PM 43.7211 -97.4389 278° West 124 143 6,000  Level Minneapolis Center
Mon 12:49:45 PM 43.7228 -97.4917 273° West 121 139 6,000  Level Minneapolis Center
Mon 12:50:46 PM 43.7297 -97.5397 281° West 121 139 6,000  Level Minneapolis Center
Mon 12:51:48 PM 43.7356 -97.5856 280° West 122 140 6,000  Level Minneapolis Center
Mon 12:52:50 PM 43.7400 -97.6317 278° West 122 140 6,000  Level Minneapolis Center
Mon 12:53:52 PM 43.7456 -97.6781 279° West 122 140 6,000  Level Minneapolis Center
Mon 12:54:53 PM 43.7506 -97.7239 279° West 122 140 6,000  Level Minneapolis Center
Mon 12:55:55 PM 43.7556 -97.7700 279° West 122 140 6,000  Level Minneapolis Center
Mon 12:56:57 PM 43.7625 -97.8258 280° West 122 140 6,000  Level Minneapolis Center
Mon 12:57:58 PM 43.7686 -97.8719 280° West 122 140 6,000 -146 Level Minneapolis Center
Mon 12:59:00 PM 43.7750 -97.9206 280° West 124 143 5,700 -532 Descending Minneapolis Center
Mon 01:00:02 PM 43.7742 -97.9703 269° West 127 146 4,900 -629 Descending Minneapolis Center
Mon 01:01:04 PM 43.7714 -98.0208 266° West 130 150 4,400 -390 Descending Minneapolis Center
Mon 01:02:05 PM 43.7789 -98.0794 280° West 131 151 4,100 -295 Descending Minneapolis Center
Mon 01:04:00 PM 43.7667 -98.0333 270° West  Level FlightAware Approximate
Mon 01:11:00 PM 43.7748 -98.0386 270° West  Level Estimated
Mon 01:12:00 PM 43.7748 -98.0386 270° West  Level Estimated

Login

Don't have an account? Register now (free) for customized features, flight alerts, and more!